| time (UTC) | temp C | wind direction | speed KPH | gust KPH | rain 1hr cm | rain 24hr cm | rain mn cm | humidity % | barometer mb |
| 20260504202547 | 29 | 96 | 1.6 | 8.0 | 0.00 | 0.00 | 0.00 | 49 | 1014.2 |
| 20260504202051 | 29 | 99 | 3.2 | 8.0 | 0.00 | 0.00 | 0.00 | 49 | 1014.2 |
| 20260504201604 | 29 | 157 | 1.6 | 14.5 | 0.00 | 0.00 | 0.00 | 50 | 1014.3 |
| 20260504201050 | 29 | 82 | 3.2 | 14.5 | 0.00 | 0.00 | 0.00 | 48 | 1014.3 |
| 20260504200550 | 29 | 105 | 1.6 | 8.0 | 0.00 | 0.00 | 0.00 | 49 | 1014.6 |
| 20260504200055 | 30 | 161 | 1.6 | 8.0 | 0.00 | 0.00 | 0.00 | 47 | 1014.6 |
| 20260504195551 | 29 | 0 | 3.2 | 8.0 | 0.00 | 0.00 | 0.00 | 47 | 1014.6 |
| 20260504195050 | 29 | 0 | 3.2 | 6.4 | 0.00 | 0.00 | 0.00 | 50 | 1014.8 |
| 20260504194557 | 28 | 186 | 1.6 | 8.0 | 0.00 | 0.00 | 0.00 | 49 | 1014.9 |
| 20260504194051 | 28 | 89 | 1.6 | 8.0 | 0.00 | 0.00 | 0.00 | 52 | 1015.0 |
| 20260504193551 | 28 | 41 | 1.6 | 8.0 | 0.00 | 0.00 | 0.00 | 53 | 1015.0 |
| 20260504193105 | 28 | 113 | 0.0 | 6.4 | 0.00 | 0.00 | 0.00 | 53 | 1015.1 |
| 20260504192551 | 28 | 44 | 0.0 | 6.4 | 0.00 | 0.00 | 0.00 | 49 | 1015.2 |
| 20260504192048 | 29 | 101 | 0.0 | 14.5 | 0.00 | 0.00 | 0.00 | 49 | 1015.2 |
| 20260504191609 | 28 | 90 | 1.6 | 16.1 | 0.00 | 0.00 | 0.00 | 55 | 1015.3 |
| 20260504191048 | 28 | 0 | 3.2 | 16.1 | 0.00 | 0.00 | 0.00 | 50 | 1015.3 |
| 20260504190548 | 28 | 89 | 0.0 | 6.4 | 0.00 | 0.00 | 0.00 | 53 | 1015.4 |
| 20260504190108 | 29 | 92 | 1.6 | 6.4 | 0.00 | 0.00 | 0.00 | 49 | 1015.4 |
| 20260504185547 | 29 | 148 | 1.6 | 6.4 | 0.00 | 0.00 | 0.00 | 49 | 1015.5 |
| 20260504185047 | 28 | 94 | 1.6 | 6.4 | 0.00 | 0.00 | 0.00 | 53 | 1015.5 |
| 20260504184556 | 28 | 92 | 1.6 | 6.4 | 0.00 | 0.00 | 0.00 | 56 | 1015.7 |
| 20260504184052 | 27 | 84 | 1.6 | 9.7 | 0.00 | 0.00 | 0.00 | 56 | 1015.9 |
| 20260504183553 | 27 | 0 | 1.6 | 9.7 | 0.00 | 0.00 | 0.00 | 56 | 1016.0 |
| 20260504183052 | 27 | 78 | 1.6 | 8.0 | 0.00 | 0.00 | 0.00 | 54 | 1016.1 |
| 20260504182551 | 27 | 55 | 1.6 | 8.0 | 0.00 | 0.00 | 0.00 | 56 | 1016.1 |
| 20260504182050 | 27 | 158 | 1.6 | 6.4 | 0.00 | 0.00 | 0.00 | 54 | 1016.2 |
| 20260504181600 | 28 | 103 | 0.0 | 6.4 | 0.00 | 0.00 | 0.00 | 53 | 1016.3 |
| 20260504181050 | 27 | 22 | 1.6 | 6.4 | 0.00 | 0.00 | 0.00 | 51 | 1016.4 |
| 20260504180552 | 28 | 71 | 1.6 | 8.0 | 0.00 | 0.00 | 0.00 | 54 | 1016.6 |
| 20260504180055 | 28 | 90 | 1.6 | 8.0 | 0.00 | 0.00 | 0.00 | 55 | 1016.7 |
| 20260504175551 | 28 | 19 | 3.2 | 8.0 | 0.00 | 0.00 | 0.00 | 55 | 1016.8 |
| 20260504175050 | 27 | 336 | 1.6 | 8.0 | 0.00 | 0.00 | 0.00 | 53 | 1016.6 |
| 20260504174552 | 27 | 55 | 1.6 | 9.7 | 0.00 | 0.00 | 0.00 | 52 | 1016.6 |
| 20260504174050 | 27 | 0 | 3.2 | 9.7 | 0.00 | 0.00 | 0.00 | 52 | 1016.8 |
| 20260504173548 | 28 | 348 | 1.6 | 9.7 | 0.00 | 0.00 | 0.00 | 52 | 1016.7 |
| 20260504173057 | 27 | 67 | 3.2 | 8.0 | 0.00 | 0.00 | 0.00 | 54 | 1016.6 |
| 20260504172547 | 28 | 72 | 1.6 | 8.0 | 0.00 | 0.00 | 0.00 | 54 | 1016.8 |
| 20260504172048 | 28 | 85 | 1.6 | 9.7 | 0.00 | 0.00 | 0.00 | 61 | 1016.7 |
| 20260504171551 | 27 | 117 | 1.6 | 9.7 | 0.00 | 0.00 | 0.00 | 55 | 1016.7 |
| 20260504171051 | 27 | 107 | 3.2 | 11.3 | 0.00 | 0.00 | 0.00 | 53 | 1016.8 |
| 20260504170547 | 27 | 65 | 3.2 | 11.3 | 0.00 | 0.00 | 0.00 | 54 | 1016.9 |
| 20260504151054 | 25 | 82 | 0.0 | 11.3 | 0.00 | 0.00 | 0.00 | 62 | 1017.9 |
| 20260504150550 | 25 | 0 | 1.6 | 11.3 | 0.00 | 0.00 | 0.00 | 60 | 1017.9 |
| 20260504141052 | 23 | 194 | 1.6 | 11.3 | 0.00 | 0.00 | 0.00 | 69 | 1017.7 |
| 20260504140553 | 23 | 123 | 1.6 | 11.3 | 0.00 | 0.00 | 0.00 | 70 | 1017.6 |
| 20260504130550 | 21 | 29 | 0.0 | 8.0 | 0.00 | 0.00 | 0.00 | 79 | 1017.3 |
| 20260504120104 | 18 | 88 | 0.0 | 4.8 | 0.00 | 0.00 | 0.00 | 84 | 1017.0 |
| 20260504110551 | 16 | 69 | 0.0 | 3.2 | 0.00 | 0.00 | 0.00 | 87 | 1016.6 |
| 20260504100551 | 17 | 69 | 0.0 | 4.8 | 0.00 | 1.55 | 0.00 | 85 | 1016.4 |
| 20260504081554 | 18 | 0 | 0.0 | 3.2 | 0.00 | 1.55 | 0.00 | 82 | 1016.3 |
| 20260504081049 | 18 | 76 | 0.0 | 3.2 | 0.00 | 1.55 | 0.00 | 82 | 1016.4 |
| 20260504080551 | 18 | 0 | 0.0 | 4.8 | 0.00 | 1.55 | 0.00 | 82 | 1016.5 |
| 20260504050551 | 20 | 0 | 0.0 | 3.2 | 0.00 | 1.55 | 0.00 | 80 | 1017.3 |
| 20260504045550 | 20 | 0 | 0.0 | 1.6 | 0.00 | 1.55 | 0.00 | 80 | 1017.2 |
| 20260504045051 | 20 | 0 | 0.0 | 3.2 | 0.00 | 1.55 | 0.00 | 80 | 1017.1 |
| 20260504044555 | 20 | 0 | 0.0 | 3.2 | 0.00 | 1.55 | 0.00 | 80 | 1017.2 |
| 20260504044050 | 20 | 90 | 0.0 | 3.2 | 0.00 | 1.55 | 0.00 | 80 | 1017.5 |
| 20260504043551 | 20 | 0 | 0.0 | 3.2 | 0.00 | 1.55 | 0.00 | 80 | 1017.6 |
| 20260504043059 | 20 | 101 | 0.0 | 3.2 | 0.00 | 1.55 | 0.00 | 80 | 1017.6 |
| 20260504042551 | 20 | 0 | 0.0 | 3.2 | 0.00 | 1.55 | 0.00 | 80 | 1017.8 |
| 20260504042049 | 20 | 0 | 0.0 | 1.6 | 0.00 | 1.55 | 0.00 | 80 | 1017.8 |
| 20260504041557 | 20 | 0 | 0.0 | 1.6 | 0.00 | 1.55 | 0.00 | 80 | 1017.9 |
| 20260504041049 | 20 | 0 | 0.0 | 1.6 | 0.00 | 1.55 | 0.00 | 80 | 1017.9 |
| 20260504040550 | 20 | 0 | 0.0 | 1.6 | 0.00 | 1.55 | 0.00 | 80 | 1018.0 |
| 20260504040131 | 20 | 0 | 0.0 | 1.6 | 0.00 | 1.55 | 0.00 | 79 | 1018.1 |
| 20260504035551 | 20 | 0 | 0.0 | 1.6 | 0.00 | 1.55 | 1.55 | 79 | 1018.0 |
| 20260504035053 | 20 | 0 | 0.0 | 1.6 | 0.00 | 1.55 | 1.55 | 79 | 1018.0 |
| 20260504034601 | 20 | 0 | 0.0 | 1.6 | 0.00 | 1.55 | 1.55 | 79 | 1018.1 |
| 20260504034050 | 20 | 0 | 0.0 | 4.8 | 0.00 | 1.55 | 1.55 | 78 | 1018.0 |
| 20260504033550 | 21 | 0 | 0.0 | 4.8 | 0.00 | 1.55 | 1.55 | 78 | 1017.9 |
| 20260504033051 | 21 | 103 | 0.0 | 4.8 | 0.00 | 1.55 | 1.55 | 77 | 1018.1 |
| 20260504032550 | 21 | 0 | 0.0 | 4.8 | 0.00 | 1.55 | 1.55 | 77 | 1017.9 |
| 20260504032050 | 21 | 90 | 0.0 | 4.8 | 0.00 | 1.55 | 1.55 | 77 | 1017.8 |
| 20260504031600 | 21 | 150 | 1.6 | 4.8 | 0.00 | 1.55 | 1.55 | 77 | 1017.9 |
| 20260504031051 | 21 | 0 | 0.0 | 4.8 | 0.00 | 1.55 | 1.55 | 77 | 1017.9 |
| 20260504030550 | 21 | 0 | 1.6 | 4.8 | 0.00 | 1.55 | 1.55 | 77 | 1017.8 |
| 20260504030054 | 21 | 0 | 0.0 | 4.8 | 0.00 | 1.55 | 1.55 | 76 | 1017.7 |
| 20260504025554 | 21 | 96 | 0.0 | 6.4 | 0.00 | 1.55 | 1.55 | 76 | 1017.7 |
| 20260504025052 | 21 | 98 | 1.6 | 6.4 | 0.00 | 1.55 | 1.55 | 76 | 1017.7 |
| 20260504024604 | 21 | 121 | 0.0 | 4.8 | 0.00 | 1.55 | 1.55 | 76 | 1017.7 |
| 20260504024050 | 21 | 0 | 0.0 | 4.8 | 0.00 | 1.55 | 1.55 | 75 | 1017.5 |
| 20260504023550 | 21 | 341 | 0.0 | 4.8 | 0.00 | 1.55 | 1.55 | 75 | 1017.4 |
| 20260504023057 | 21 | 107 | 0.0 | 3.2 | 0.00 | 1.55 | 1.55 | 75 | 1017.3 |
| 20260504022550 | 22 | 0 | 0.0 | 14.5 | 0.00 | 1.55 | 1.55 | 74 | 1017.5 |
| 20260504022050 | 22 | 0 | 0.0 | 14.5 | 0.00 | 1.55 | 1.55 | 74 | 1017.4 |
| 20260504021553 | 22 | 94 | 0.0 | 4.8 | 0.00 | 1.55 | 1.55 | 74 | 1017.4 |
| 20260504021050 | 22 | 88 | 0.0 | 9.7 | 0.00 | 1.55 | 1.55 | 74 | 1017.4 |
| 20260504020550 | 22 | 0 | 1.6 | 9.7 | 0.00 | 1.55 | 1.55 | 74 | 1017.4 |
| 20260504020107 | 22 | 103 | 0.0 | 4.8 | 0.00 | 1.55 | 1.55 | 74 | 1017.3 |
| 20260504015552 | 22 | 119 | 0.0 | 4.8 | 0.00 | 1.55 | 1.55 | 74 | 1017.3 |
| 20260504015052 | 22 | 126 | 0.0 | 4.8 | 0.00 | 1.55 | 1.55 | 73 | 1017.1 |
| 20260504014553 | 22 | 0 | 0.0 | 4.8 | 0.00 | 1.55 | 1.55 | 72 | 1017.3 |
| 20260504014049 | 22 | 68 | 0.0 | 4.8 | 0.00 | 1.55 | 1.55 | 72 | 1017.1 |
| 20260504013550 | 22 | 51 | 0.0 | 3.2 | 0.00 | 1.55 | 1.55 | 71 | 1017.0 |
| 20260504013053 | 22 | 0 | 0.0 | 3.2 | 0.00 | 1.55 | 1.55 | 71 | 1016.9 |
| 20260504012550 | 22 | 0 | 0.0 | 4.8 | 0.00 | 1.55 | 1.55 | 70 | 1016.8 |
| 20260504012051 | 22 | 0 | 0.0 | 6.4 | 0.00 | 1.55 | 1.55 | 70 | 1016.8 |
| 20260504011552 | 22 | 0 | 1.6 | 6.4 | 0.00 | 1.55 | 1.55 | 70 | 1016.7 |
| 20260504011050 | 22 | 0 | 0.0 | 3.2 | 0.00 | 1.55 | 1.55 | 70 | 1016.6 |
| 20260504010550 | 22 | 0 | 0.0 | 3.2 | 0.00 | 1.55 | 1.55 | 70 | 1016.6 |
| 20260504010056 | 22 | 0 | 0.0 | 3.2 | 0.00 | 1.55 | 1.55 | 69 | 1016.4 |
| 20260504005550 | 22 | 36 | 0.0 | 3.2 | 0.00 | 1.55 | 1.55 | 69 | 1016.3 |
| 20260504005052 | 22 | 0 | 0.0 | 4.8 | 0.00 | 1.55 | 1.55 | 69 | 1016.3 |
| 20260504004555 | 22 | 37 | 0.0 | 4.8 | 0.00 | 1.55 | 1.55 | 69 | 1016.2 |
| 20260504004051 | 22 | 0 | 0.0 | 4.8 | 0.00 | 1.55 | 1.55 | 68 | 1016.3 |
| 20260504003550 | 22 | 0 | 0.0 | 4.8 | 0.00 | 1.55 | 1.55 | 68 | 1016.2 |
| 20260504003053 | 22 | 52 | 0.0 | 4.8 | 0.00 | 1.55 | 1.55 | 68 | 1016.2 |
| 20260504002550 | 23 | 51 | 0.0 | 4.8 | 0.00 | 1.55 | 1.55 | 67 | 1016.0 |
| 20260504002051 | 23 | 52 | 0.0 | 4.8 | 0.00 | 1.55 | 1.55 | 66 | 1016.0 |
| 20260504001555 | 23 | 0 | 0.0 | 1.6 | 0.00 | 1.55 | 1.55 | 65 | 1015.9 |
| 20260504001051 | 23 | 0 | 0.0 | 1.6 | 0.00 | 1.55 | 1.55 | 64 | 1015.9 |
| 20260504000550 | 23 | 0 | 0.0 | 1.6 | 0.00 | 1.55 | 1.55 | 65 | 1015.6 |
| 20260504000054 | 23 | 0 | 0.0 | 1.6 | 0.00 | 1.55 | 1.55 | 63 | 1015.6 |
| 20260503235550 | 23 | 0 | 0.0 | 1.6 | 0.00 | 1.55 | 1.55 | 63 | 1015.6 |
| 20260503235053 | 23 | 0 | 0.0 | 3.2 | 0.00 | 1.55 | 1.55 | 64 | 1015.7 |
| 20260503234624 | 24 | 0 | 0.0 | 3.2 | 0.00 | 1.55 | 1.55 | 63 | 1015.6 |
| 20260503234053 | 24 | 0 | 0.0 | 3.2 | 0.00 | 1.55 | 1.55 | 62 | 1015.7 |
| 20260503233552 | 24 | 0 | 0.0 | 4.8 | 0.00 | 1.55 | 1.55 | 61 | 1015.6 |
| 20260503233112 | 25 | 0 | 0.0 | 4.8 | 0.00 | 1.55 | 1.55 | 61 | 1015.6 |
| 20260503232550 | 25 | 77 | 0.0 | 3.2 | 0.00 | 1.55 | 1.55 | 61 | 1015.7 |
| 20260503232050 | 25 | 0 | 0.0 | 3.2 | 0.00 | 1.55 | 1.55 | 59 | 1015.7 |
| 20260503231552 | 25 | 0 | 0.0 | 4.8 | 0.00 | 1.55 | 1.55 | 60 | 1015.6 |
| 20260503231050 | 25 | 0 | 0.0 | 4.8 | 0.00 | 1.55 | 1.55 | 59 | 1015.5 |
| 20260503230551 | 25 | 0 | 1.6 | 4.8 | 0.00 | 1.55 | 1.55 | 59 | 1015.5 |
| 20260503230055 | 25 | 97 | 0.0 | 3.2 | 0.00 | 1.55 | 1.55 | 59 | 1015.5 |
| 20260503225550 | 25 | 0 | 0.0 | 3.2 | 0.00 | 1.60 | 1.55 | 58 | 1015.4 |
| 20260503225050 | 25 | 104 | 0.0 | 3.2 | 0.00 | 1.60 | 1.55 | 58 | 1015.4 |
| 20260503224552 | 25 | 117 | 0.0 | 8.0 | 0.00 | 1.60 | 1.55 | 59 | 1015.5 |
| 20260503224052 | 26 | 0 | 1.6 | 8.0 | 0.00 | 1.60 | 1.55 | 58 | 1015.4 |
| 20260503223551 | 26 | 51 | 0.0 | 4.8 | 0.00 | 1.60 | 1.55 | 56 | 1015.4 |
| 20260503223057 | 26 | 360 | 0.0 | 6.4 | 0.00 | 1.60 | 1.55 | 57 | 1015.5 |
| 20260503222552 | 26 | 0 | 1.6 | 6.4 | 0.00 | 1.60 | 1.55 | 57 | 1015.5 |
| 20260503222049 | 26 | 0 | 0.0 | 4.8 | 0.00 | 1.60 | 1.55 | 58 | 1015.5 |
| 20260503221600 | 26 | 0 | 0.0 | 4.8 | 0.00 | 1.60 | 1.55 | 55 | 1015.5 |
| 20260503221050 | 26 | 343 | 0.0 | 4.8 | 0.00 | 1.60 | 1.55 | 56 | 1015.4 |
| 20260503220551 | 26 | 55 | 0.0 | 4.8 | 0.00 | 1.60 | 1.55 | 56 | 1015.5 |
| 20260503220057 | 26 | 0 | 1.6 | 6.4 | 0.00 | 1.60 | 1.55 | 57 | 1015.8 |
| 20260503215550 | 26 | 78 | 0.0 | 6.4 | 0.00 | 1.68 | 1.55 | 57 | 1015.6 |
| 20260503215050 | 26 | 45 | 1.6 | 6.4 | 0.00 | 1.68 | 1.55 | 55 | 1015.6 |
| 20260503214551 | 26 | 52 | 0.0 | 4.8 | 0.00 | 1.68 | 1.55 | 57 | 1015.5 |
| 20260503214053 | 27 | 49 | 1.6 | 6.4 | 0.00 | 1.68 | 1.55 | 58 | 1015.6 |
| 20260503213550 | 26 | 58 | 0.0 | 6.4 | 0.00 | 1.68 | 1.55 | 57 | 1015.6 |
| 20260503213051 | 26 | 11 | 0.0 | 6.4 | 0.00 | 1.68 | 1.55 | 57 | 1015.7 |
| 20260503212550 | 26 | 0 | 1.6 | 11.3 | 0.00 | 1.68 | 1.55 | 57 | 1015.7 |
| 20260503212049 | 26 | 53 | 3.2 | 11.3 | 0.00 | 1.68 | 1.55 | 53 | 1015.6 |
| 20260503211553 | 27 | 37 | 3.2 | 11.3 | 0.00 | 1.68 | 1.55 | 55 | 1015.7 |
| 20260503211050 | 27 | 0 | 0.0 | 6.4 | 0.00 | 1.68 | 1.55 | 56 | 1015.7 |
| 20260503210551 | 27 | 93 | 0.0 | 6.4 | 0.00 | 1.68 | 1.55 | 58 | 1015.8 |
| 20260503210100 | 26 | 0 | 1.6 | 9.7 | 0.00 | 1.68 | 1.55 | 55 | 1015.7 |
| 20260503205550 | 26 | 10 | 1.6 | 9.7 | 0.00 | 1.75 | 1.55 | 57 | 1015.7 |
| 20260503205051 | 27 | 17 | 1.6 | 8.0 | 0.00 | 1.75 | 1.55 | 58 | 1015.7 |
| 20260503204557 | 27 | 26 | 1.6 | 8.0 | 0.00 | 1.75 | 1.55 | 57 | 1015.7 |
| 20260503204051 | 27 | 49 | 1.6 | 8.0 | 0.00 | 1.75 | 1.55 | 57 | 1015.7 |
| 20260503203551 | 27 | 129 | 1.6 | 6.4 | 0.00 | 1.75 | 1.55 | 58 | 1016.0 |
| 20260503203058 | 27 | 47 | 1.6 | 6.4 | 0.00 | 1.75 | 1.55 | 58 | 1016.0 |